Time;durP1;ratioP1;P1;durP2;ratioP2;P2;SDS_P1;SDS_P2;PMS_P1;PMS_P2;Temp;Humidity;BMP_temperature;BMP_pressure;BME280_temperature;BME280_humidity;BME280_pressure;Samples;Min_cycle;Max_cycle;Signal;HPM_P1;HPM_P2
2023/12/18 00:01:38;;;;;;;9.40;7.23;;;-0.80;99.90;;;;;;5073142;28;20491;-83
2023/12/18 00:04:07;;;;;;;6.23;5.63;;;-0.90;99.90;;;;;;5080528;28;20477;-82
2023/12/18 00:06:36;;;;;;;7.83;5.87;;;-0.90;99.90;;;;;;5077569;28;20476;-82
2023/12/18 00:09:03;;;;;;;4.43;4.03;;;-0.90;99.90;;;;;;5084021;28;20508;-82
2023/12/18 00:11:30;;;;;;;4.77;4.27;;;-0.80;99.90;;;;;;5079933;28;20530;-82
2023/12/18 00:13:57;;;;;;;4.63;4.23;;;-0.80;99.90;;;;;;5079703;28;20950;-82
2023/12/18 00:16:24;;;;;;;4.20;3.63;;;-0.80;99.90;;;;;;5065813;28;20961;-82
2023/12/18 00:18:51;;;;;;;5.03;4.10;;;-0.80;99.90;;;;;;5070877;28;20899;-82
2023/12/18 00:21:18;;;;;;;5.47;4.53;;;-0.80;99.90;;;;;;5084330;28;20547;-82
2023/12/18 00:23:46;;;;;;;7.23;5.00;;;-0.60;99.90;;;;;;5073827;28;20466;-82
2023/12/18 00:26:13;;;;;;;9.20;8.40;;;-0.60;99.90;;;;;;5064740;28;21028;-82
2023/12/18 00:28:40;;;;;;;9.07;7.03;;;-0.50;99.90;;;;;;5080687;28;20482;-82
2023/12/18 00:31:07;;;;;;;9.90;7.23;;;-0.30;99.90;;;;;;5082788;28;20500;-82
2023/12/18 00:33:34;;;;;;;7.70;5.60;;;-0.30;99.90;;;;;;5077577;28;20511;-82
2023/12/18 00:36:01;;;;;;;7.53;4.57;;;-0.30;99.90;;;;;;5065293;28;20475;-82
2023/12/18 00:38:28;;;;;;;6.37;3.90;;;-0.30;99.90;;;;;;5074931;28;20447;-83
2023/12/18 00:40:56;;;;;;;7.47;4.53;;;-0.40;99.90;;;;;;5074080;28;21135;-82
2023/12/18 00:43:23;;;;;;;3.80;3.10;;;-0.40;99.90;;;;;;5069878;28;20475;-82
2023/12/18 00:45:50;;;;;;;2.87;2.57;;;-0.40;99.90;;;;;;5074137;28;20509;-83
2023/12/18 00:48:17;;;;;;;3.33;3.03;;;-0.50;99.90;;;;;;5071132;28;20459;-83
2023/12/18 00:50:44;;;;;;;3.40;2.70;;;-0.70;99.90;;;;;;5064478;28;20920;-83
2023/12/18 00:53:16;;;;;;;4.33;3.27;;;-0.80;99.90;;;;;;5078601;28;20443;-83
2023/12/18 00:55:42;;;;;;;6.30;3.53;;;-0.90;99.90;;;;;;5065632;28;20494;-83
2023/12/18 00:58:11;;;;;;;4.03;3.63;;;-0.90;99.90;;;;;;5071015;28;20584;-83
2023/12/18 01:00:38;;;;;;;5.43;4.10;;;-1.00;99.90;;;;;;5067057;28;20549;-83
2023/12/18 01:03:05;;;;;;;5.80;3.47;;;-1.10;99.90;;;;;;5077016;28;20446;-81
2023/12/18 01:05:32;;;;;;;3.77;2.93;;;-1.20;99.90;;;;;;5071315;28;20452;-81
2023/12/18 01:07:59;;;;;;;7.13;3.83;;;-1.30;99.90;;;;;;5080484;28;20548;-81
2023/12/18 01:10:26;;;;;;;6.37;3.87;;;-1.30;99.90;;;;;;5076842;28;20942;-83
2023/12/18 01:12:53;;;;;;;4.57;2.33;;;-1.40;99.90;;;;;;5084350;28;20482;-83
2023/12/18 01:15:22;;;;;;;4.00;2.60;;;-1.20;99.90;;;;;;5073137;28;20927;-83
2023/12/18 01:17:49;;;;;;;2.83;2.07;;;-1.20;99.90;;;;;;5079352;28;20457;-83
2023/12/18 01:20:16;;;;;;;3.17;2.13;;;-1.00;99.90;;;;;;5075633;28;20522;-82
2023/12/18 01:22:43;;;;;;;2.87;2.33;;;-0.90;99.90;;;;;;5085196;28;20454;-83
2023/12/18 01:25:10;;;;;;;4.43;2.10;;;-0.80;99.90;;;;;;5077263;28;20902;-83
2023/12/18 01:27:37;;;;;;;1.53;1.40;;;-0.70;99.90;;;;;;5079571;28;20466;-83
2023/12/18 01:30:06;;;;;;;2.37;1.63;;;-0.70;99.90;;;;;;5086527;28;20455;-82
2023/12/18 01:32:34;;;;;;;3.70;2.10;;;-0.70;99.90;;;;;;5076901;28;21216;-83
2023/12/18 01:35:01;;;;;;;2.70;1.10;;;-0.60;99.90;;;;;;5077283;28;20467;-82
2023/12/18 01:37:28;;;;;;;4.07;2.17;;;-0.70;99.90;;;;;;5078360;28;20885;-83
2023/12/18 01:39:55;;;;;;;2.30;2.10;;;-0.60;99.90;;;;;;5072792;28;20442;-83
2023/12/18 01:42:22;;;;;;;3.87;1.70;;;-0.60;99.90;;;;;;5082160;28;20490;-83
2023/12/18 01:44:49;;;;;;;1.47;1.37;;;-0.70;99.90;;;;;;5075495;28;20464;-83
2023/12/18 01:47:17;;;;;;;1.90;1.43;;;-0.60;99.90;;;;;;5073369;28;20443;-83
2023/12/18 01:49:45;;;;;;;1.47;1.13;;;-0.50;99.90;;;;;;5071401;28;20475;-82
2023/12/18 01:52:13;;;;;;;2.80;1.73;;;-0.50;99.90;;;;;;5082654;28;20921;-83
2023/12/18 01:54:40;;;;;;;2.23;2.03;;;-0.60;99.90;;;;;;5072303;28;20470;-82
2023/12/18 01:57:08;;;;;;;1.70;1.40;;;-0.60;99.90;;;;;;5080177;28;20536;-80
2023/12/18 01:59:35;;;;;;;1.27;0.97;;;-0.40;99.90;;;;;;5078934;28;20443;-80
2023/12/18 02:02:02;;;;;;;1.27;1.10;;;-0.20;99.90;;;;;;5069820;28;20486;-80
2023/12/18 02:04:29;;;;;;;0.83;0.80;;;-0.10;99.90;;;;;;5079784;28;20489;-80
2023/12/18 02:07:01;;;;;;;2.50;1.60;;;-0.10;99.90;;;;;;5067068;28;20509;-81
2023/12/18 02:09:28;;;;;;;1.97;1.47;;;-0.10;99.90;;;;;;5071552;28;20504;-81
2023/12/18 02:11:55;;;;;;;3.50;1.30;;;-0.10;99.90;;;;;;5072458;28;20475;-82
2023/12/18 02:14:22;;;;;;;2.67;1.50;;;-0.20;99.90;;;;;;5066245;28;20501;-82
2023/12/18 02:16:49;;;;;;;2.03;1.63;;;-0.20;99.90;;;;;;5081964;28;20903;-81
2023/12/18 02:19:23;;;;;;;1.73;1.63;;;-0.20;99.90;;;;;;5075837;28;20834;-82
2023/12/18 02:21:50;;;;;;;2.30;1.80;;;-0.30;99.90;;;;;;5071212;28;20573;-82
2023/12/18 02:24:19;;;;;;;4.07;1.40;;;-0.40;99.90;;;;;;5064298;28;20472;-82
2023/12/18 02:26:47;;;;;;;3.03;1.80;;;-0.50;99.90;;;;;;5072988;28;20523;-82
2023/12/18 02:29:14;;;;;;;3.07;2.10;;;-0.50;99.90;;;;;;5066706;28;21057;-82
2023/12/18 02:31:41;;;;;;;4.33;1.87;;;-0.60;99.90;;;;;;5075541;28;20458;-82
2023/12/18 02:34:08;;;;;;;3.20;1.43;;;-0.70;99.90;;;;;;5073504;28;20757;-81
2023/12/18 02:36:35;;;;;;;1.40;1.30;;;-0.80;99.90;;;;;;5067330;28;20501;-81
2023/12/18 02:39:02;;;;;;;2.20;1.83;;;-0.80;99.90;;;;;;5067516;28;20447;-82
2023/12/18 02:41:30;;;;;;;3.20;2.17;;;-0.90;99.90;;;;;;5068731;28;20483;-81
2023/12/18 02:43:57;;;;;;;2.60;1.90;;;-1.00;99.90;;;;;;5065533;28;20532;-81
2023/12/18 02:46:24;;;;;;;2.23;2.00;;;-1.20;99.90;;;;;;5074799;28;20507;-82
2023/12/18 02:48:51;;;;;;;3.17;2.83;;;-1.30;99.90;;;;;;5069496;28;20844;-82
2023/12/18 02:51:18;;;;;;;2.93;2.60;;;-1.40;99.90;;;;;;5082250;28;20790;-81
2023/12/18 02:53:45;;;;;;;3.23;2.30;;;-1.40;99.90;;;;;;5085615;28;20983;-82
2023/12/18 02:56:14;;;;;;;4.60;3.00;;;-1.50;99.90;;;;;;5077041;28;20560;-82
2023/12/18 02:58:42;;;;;;;9.43;4.80;;;-1.50;99.90;;;;;;5072159;28;20470;-81
2023/12/18 03:01:09;;;;;;;3.00;2.40;;;-1.60;99.90;;;;;;5069725;28;20540;-81
2023/12/18 03:03:36;;;;;;;3.63;3.17;;;-1.60;99.90;;;;;;5076490;28;20459;-82
2023/12/18 03:06:03;;;;;;;2.77;2.57;;;-1.60;99.90;;;;;;5071001;28;20559;-82
2023/12/18 03:08:30;;;;;;;2.90;1.90;;;-1.60;99.90;;;;;;5084709;28;20459;-81
2023/12/18 03:10:57;;;;;;;5.07;2.63;;;-1.60;99.90;;;;;;5075402;28;20450;-82
2023/12/18 03:13:24;;;;;;;2.13;1.90;;;-1.70;99.90;;;;;;5073006;28;21240;-82
2023/12/18 03:15:52;;;;;;;2.10;1.90;;;-1.60;99.90;;;;;;5069004;28;20984;-82
2023/12/18 03:18:19;;;;;;;2.47;1.73;;;-1.70;99.90;;;;;;5072629;28;20504;-82
2023/12/18 03:20:46;;;;;;;2.80;2.57;;;-1.70;99.90;;;;;;5080354;28;20454;-81
2023/12/18 03:23:13;;;;;;;2.60;2.40;;;-1.70;99.90;;;;;;5067201;28;20529;-82
2023/12/18 03:25:40;;;;;;;2.40;1.93;;;-1.60;99.90;;;;;;5072842;28;20467;-81
2023/12/18 03:28:07;;;;;;;4.10;2.90;;;-1.60;99.90;;;;;;5064657;28;20451;-82
2023/12/18 03:30:34;;;;;;;2.53;1.80;;;-1.60;99.90;;;;;;5071802;28;20904;-82
2023/12/18 03:33:02;;;;;;;1.70;1.60;;;-1.60;99.90;;;;;;5066815;28;20446;-82
2023/12/18 03:35:30;;;;;;;2.57;2.00;;;-1.60;99.90;;;;;;5065351;28;20455;-82
2023/12/18 03:37:57;;;;;;;3.57;2.50;;;-1.60;99.90;;;;;;5066888;28;20582;-81
2023/12/18 03:40:23;;;;;;;2.70;2.23;;;-1.60;99.90;;;;;;5069148;28;20466;-82
2023/12/18 03:42:50;;;;;;;2.50;2.23;;;-1.60;99.90;;;;;;5083028;28;20490;-81
2023/12/18 03:45:17;;;;;;;2.13;1.90;;;-1.60;99.90;;;;;;5071432;28;20520;-82
2023/12/18 03:47:44;;;;;;;1.90;1.80;;;-1.60;99.90;;;;;;5075204;28;20456;-82
2023/12/18 03:50:13;;;;;;;2.47;1.70;;;-1.60;99.90;;;;;;5076152;28;20546;-82
2023/12/18 03:52:39;;;;;;;2.00;1.60;;;-1.60;99.90;;;;;;5076888;28;20509;-81
2023/12/18 03:55:07;;;;;;;3.37;2.03;;;-1.60;99.90;;;;;;5076863;28;20805;-81
2023/12/18 03:57:34;;;;;;;2.80;2.60;;;-1.50;99.90;;;;;;5080778;28;20482;-82
2023/12/18 04:00:01;;;;;;;2.57;1.90;;;-1.60;99.90;;;;;;5073879;28;20459;-82
2023/12/18 04:02:28;;;;;;;4.00;2.70;;;-1.70;99.90;;;;;;5077186;28;20495;-82
2023/12/18 04:04:55;;;;;;;2.50;1.87;;;-1.70;99.90;;;;;;5067520;28;20455;-81
2023/12/18 04:07:24;;;;;;;3.17;2.00;;;-1.80;99.90;;;;;;5077738;28;20523;-82
2023/12/18 04:09:51;;;;;;;3.43;2.13;;;-1.90;99.90;;;;;;5075590;28;20462;-82
2023/12/18 04:12:18;;;;;;;3.33;2.10;;;-1.90;99.90;;;;;;5066790;28;20486;-82
2023/12/18 04:14:44;;;;;;;3.00;1.97;;;-1.90;99.90;;;;;;5065054;28;20446;-82
2023/12/18 04:17:11;;;;;;;2.13;1.53;;;-1.80;99.90;;;;;;5075315;28;20447;-82
2023/12/18 04:19:38;;;;;;;4.60;2.57;;;-1.80;99.90;;;;;;5067237;28;20847;-81
2023/12/18 04:22:05;;;;;;;2.13;1.83;;;-1.70;99.90;;;;;;5075276;28;20485;-81
2023/12/18 04:24:34;;;;;;;1.77;1.63;;;-1.80;99.90;;;;;;5061564;28;20985;-81
2023/12/18 04:27:01;;;;;;;1.47;1.33;;;-1.70;99.90;;;;;;5063881;28;20451;-81
2023/12/18 04:29:28;;;;;;;2.13;2.00;;;-1.70;99.90;;;;;;5062946;28;21002;-81
2023/12/18 04:31:54;;;;;;;4.30;1.67;;;-1.70;99.90;;;;;;5070361;28;20447;-81
2023/12/18 04:34:21;;;;;;;2.30;1.67;;;-1.70;99.90;;;;;;5065321;28;20531;-81
2023/12/18 04:36:48;;;;;;;3.70;2.00;;;-1.70;99.90;;;;;;5068696;28;20537;-81
2023/12/18 04:39:15;;;;;;;2.70;1.50;;;-1.70;99.90;;;;;;5071148;28;20601;-81
2023/12/18 04:41:44;;;;;;;2.87;1.83;;;-1.80;99.90;;;;;;5077316;28;20484;-81
2023/12/18 04:44:14;;;;;;;1.73;1.63;;;-1.70;99.90;;;;;;5067943;28;20793;-82
2023/12/18 04:46:42;;;;;;;1.63;1.30;;;-1.80;99.90;;;;;;5063325;28;20835;-82
2023/12/18 04:49:09;;;;;;;3.27;1.63;;;-1.80;99.90;;;;;;5067028;28;20447;-81
2023/12/18 04:51:36;;;;;;;2.20;1.07;;;-1.80;99.90;;;;;;5081228;28;20470;-81
2023/12/18 04:54:03;;;;;;;1.53;1.40;;;-1.70;99.90;;;;;;5066166;28;20466;-81
2023/12/18 04:56:30;;;;;;;1.77;1.67;;;-1.70;99.90;;;;;;5080286;28;20526;-81
2023/12/18 04:58:59;;;;;;;1.73;1.30;;;-1.70;99.90;;;;;;5074394;28;20466;-81
2023/12/18 05:01:26;;;;;;;1.73;1.27;;;-1.70;99.90;;;;;;5080526;28;20812;-81
2023/12/18 05:03:53;;;;;;;1.77;1.67;;;-1.70;99.90;;;;;;5073365;28;20472;-81
2023/12/18 05:06:20;;;;;;;2.33;1.57;;;-1.70;99.90;;;;;;5089867;28;20575;-81
2023/12/18 05:08:48;;;;;;;1.50;1.40;;;-1.80;99.90;;;;;;5066395;28;20501;-81
2023/12/18 05:11:16;;;;;;;3.80;1.20;;;-1.80;99.90;;;;;;5074896;28;20438;-81
2023/12/18 05:13:43;;;;;;;2.47;1.57;;;-1.90;99.90;;;;;;5078132;28;20546;-81
2023/12/18 05:16:12;;;;;;;1.87;1.27;;;-1.90;99.90;;;;;;5076062;28;20455;-81
2023/12/18 05:18:39;;;;;;;1.37;0.87;;;-1.80;99.90;;;;;;5074313;28;20463;-81
2023/12/18 05:21:06;;;;;;;3.10;1.10;;;-1.80;99.90;;;;;;5081585;28;20463;-81
2023/12/18 05:23:33;;;;;;;2.40;1.27;;;-1.70;99.90;;;;;;5068719;28;20495;-81
2023/12/18 05:26:00;;;;;;;1.53;1.40;;;-1.70;99.90;;;;;;5067953;28;20467;-81
2023/12/18 05:28:27;;;;;;;1.80;1.43;;;-1.80;99.90;;;;;;5068301;28;20483;-81
2023/12/18 05:30:55;;;;;;;2.70;2.07;;;-1.90;99.90;;;;;;5068200;28;21013;-82
2023/12/18 05:33:23;;;;;;;1.87;1.63;;;-1.90;99.90;;;;;;5070174;28;20847;-82
2023/12/18 05:35:50;;;;;;;2.63;1.83;;;-1.90;99.90;;;;;;5071260;28;20572;-82
2023/12/18 05:38:17;;;;;;;1.43;1.20;;;-1.90;99.90;;;;;;5075615;28;20470;-81
2023/12/18 05:40:44;;;;;;;2.17;1.70;;;-2.00;99.90;;;;;;5082306;28;20442;-82
2023/12/18 05:43:11;;;;;;;2.43;1.97;;;-2.00;99.90;;;;;;5071440;28;20533;-82
2023/12/18 05:45:38;;;;;;;3.33;2.60;;;-2.00;99.90;;;;;;5074588;28;20462;-82
2023/12/18 05:48:06;;;;;;;2.60;1.40;;;-1.90;99.90;;;;;;5076624;28;20750;-82
2023/12/18 05:50:34;;;;;;;3.40;2.27;;;-1.90;99.90;;;;;;5079253;28;21200;-82
2023/12/18 05:53:01;;;;;;;4.80;1.27;;;-1.90;99.90;;;;;;5083852;28;20431;-82
2023/12/18 05:55:28;;;;;;;1.47;0.90;;;-1.90;99.90;;;;;;5070471;28;20451;-82
2023/12/18 05:57:55;;;;;;;7.32;2.30;;;-2.00;99.90;;;;;;5069243;28;20473;-82
2023/12/18 06:00:22;;;;;;;1.30;1.20;;;-2.00;99.90;;;;;;5072132;28;20262;-82
2023/12/18 06:02:49;;;;;;;1.92;1.35;;;-2.10;99.90;;;;;;5066981;28;20498;-82
2023/12/18 06:05:16;;;;;;;1.87;1.00;;;-2.10;99.90;;;;;;5081780;28;20256;-82
2023/12/18 06:07:45;;;;;;;4.27;1.97;;;-2.10;99.90;;;;;;5073306;28;20923;-82
2023/12/18 06:10:12;;;;;;;2.50;1.57;;;-2.10;99.90;;;;;;5079229;28;20454;-82
2023/12/18 06:12:39;;;;;;;1.40;1.00;;;-1.90;99.90;;;;;;5073926;28;20822;-82
2023/12/18 06:15:07;;;;;;;2.50;1.73;;;-1.90;99.90;;;;;;5074236;28;20871;-83
2023/12/18 06:17:34;;;;;;;2.40;2.20;;;-2.00;99.90;;;;;;5082819;28;20504;-83
2023/12/18 06:20:04;;;;;;;2.80;1.60;;;-2.00;99.90;;;;;;5079100;28;20927;-82
2023/12/18 06:22:31;;;;;;;2.93;2.13;;;-2.10;99.90;;;;;;5064752;28;20501;-82
2023/12/18 06:25:00;;;;;;;5.37;2.10;;;-2.10;99.90;;;;;;5064567;28;20463;-82
2023/12/18 06:27:27;;;;;;;2.50;2.17;;;-2.10;99.90;;;;;;5076985;28;20454;-81
2023/12/18 06:29:54;;;;;;;2.40;2.03;;;-2.10;99.90;;;;;;5063756;28;20701;-81
2023/12/18 06:32:21;;;;;;;1.67;1.57;;;-2.10;99.90;;;;;;5078257;28;20191;-82
2023/12/18 06:34:48;;;;;;;2.70;1.85;;;-2.10;99.90;;;;;;5073353;28;20458;-84
2023/12/18 06:37:15;;;;;;;1.70;1.60;;;-2.20;99.90;;;;;;5077097;28;20201;-82
2023/12/18 06:39:42;;;;;;;1.77;1.50;;;-2.20;99.90;;;;;;5074874;28;20451;-82
2023/12/18 06:42:11;;;;;;;2.77;2.30;;;-2.20;99.90;;;;;;5072034;28;20491;-82
2023/12/18 06:44:38;;;;;;;1.80;1.70;;;-2.20;99.90;;;;;;5069050;28;20740;-81
2023/12/18 06:47:05;;;;;;;2.50;2.17;;;-2.20;99.90;;;;;;5084414;28;20852;-82
2023/12/18 06:49:32;;;;;;;3.07;2.67;;;-2.20;99.90;;;;;;5071239;28;20471;-83
2023/12/18 06:51:59;;;;;;;3.70;2.20;;;-2.20;99.90;;;;;;5078132;28;20450;-82
2023/12/18 06:54:27;;;;;;;2.80;2.27;;;-2.20;99.90;;;;;;5082863;28;20481;-82
2023/12/18 06:56:54;;;;;;;2.37;2.10;;;-2.20;99.90;;;;;;5082437;28;20533;-82
2023/12/18 06:59:22;;;;;;;3.00;2.30;;;-2.20;99.90;;;;;;5075828;28;20510;-81
2023/12/18 07:01:49;;;;;;;7.03;5.57;;;-2.20;99.90;;;;;;5070639;28;20786;-82
2023/12/18 07:04:16;;;;;;;9.60;5.85;;;-2.20;99.90;;;;;;5067273;28;20966;-81
2023/12/18 07:06:43;;;;;;;9.23;8.27;;;-2.30;99.90;;;;;;5077377;28;20211;-81
2023/12/18 07:09:10;;;;;;;7.70;6.10;;;-2.40;99.90;;;;;;5072151;28;20514;-80
2023/12/18 07:11:37;;;;;;;16.23;7.90;;;-2.80;99.90;;;;;;5067398;28;20546;-81
2023/12/18 07:14:04;;;;;;;6.90;5.35;;;-2.80;99.90;;;;;;5067800;28;20216;-81
2023/12/18 07:16:33;;;;;;;5.63;5.07;;;-2.90;99.90;;;;;;5066844;28;20290;-79
2023/12/18 07:18:59;;;;;;;6.10;5.50;;;-2.90;99.90;;;;;;5064822;28;20207;-79
2023/12/18 07:21:26;;;;;;;6.38;5.70;;;-2.80;99.90;;;;;;5074432;28;20745;-79
2023/12/18 07:23:54;;;;;;;10.40;5.28;;;-2.70;99.90;;;;;;5067798;28;20272;-78
2023/12/18 07:26:21;;;;;;;5.60;5.10;;;-2.70;99.90;;;;;;5066986;28;20629;-79
2023/12/18 07:28:48;;;;;;;6.20;5.05;;;-2.60;99.90;;;;;;5067598;28;20215;-79
2023/12/18 07:31:15;;;;;;;5.88;5.30;;;-2.60;99.90;;;;;;5066277;28;20209;-80
2023/12/18 07:33:44;;;;;;;4.82;4.53;;;-2.60;99.90;;;;;;5063968;28;20593;-81
2023/12/18 07:36:11;;;;;;;7.00;6.25;;;-2.50;99.90;;;;;;5078633;28;20246;-80
2023/12/18 07:38:38;;;;;;;7.57;5.82;;;-2.50;99.90;;;;;;5069675;28;20216;-80
2023/12/18 07:41:06;;;;;;;8.83;5.90;;;-2.40;99.90;;;;;;5064013;28;20205;-81
2023/12/18 07:43:33;;;;;;;8.37;7.20;;;-2.40;99.90;;;;;;5064652;28;20546;-81
2023/12/18 07:45:59;;;;;;;6.80;5.53;;;-2.30;99.90;;;;;;5064508;28;20455;-82
2023/12/18 07:48:27;;;;;;;11.95;6.80;;;-2.20;99.90;;;;;;5073299;28;20477;-81
2023/12/18 07:50:56;;;;;;;10.60;6.18;;;-2.20;99.90;;;;;;5068083;28;20207;-81
2023/12/18 07:53:23;;;;;;;8.95;6.40;;;-2.20;99.90;;;;;;5065159;28;20318;-81
2023/12/18 07:55:50;;;;;;;7.20;6.07;;;-2.10;99.90;;;;;;5065016;28;20263;-84
2023/12/18 07:58:17;;;;;;;5.60;4.60;;;-2.10;99.90;;;;;;5080041;28;20203;-81
2023/12/18 08:00:44;;;;;;;6.27;5.17;;;-2.00;99.90;;;;;;5074202;28;20220;-82
2023/12/18 08:03:11;;;;;;;6.78;6.18;;;-1.90;99.90;;;;;;5073076;28;20921;-82
2023/12/18 08:05:37;;;;;;;7.50;6.50;;;-1.80;99.90;;;;;;5075226;28;20205;-82
2023/12/18 08:08:06;;;;;;;10.57;8.50;;;-1.70;99.90;;;;;;5074497;28;20457;-82
2023/12/18 08:10:33;;;;;;;10.23;7.82;;;-1.60;99.90;;;;;;5077302;28;20450;-82
2023/12/18 08:13:00;;;;;;;9.07;8.00;;;-1.50;99.90;;;;;;5074011;28;20200;-81
2023/12/18 08:15:27;;;;;;;13.80;8.63;;;-1.40;99.90;;;;;;5067103;28;20284;-80
2023/12/18 08:17:54;;;;;;;10.23;8.20;;;-1.30;99.90;;;;;;5064213;28;20548;-81
2023/12/18 08:20:21;;;;;;;7.80;6.97;;;-1.30;99.90;;;;;;5063180;28;20823;-81
2023/12/18 08:22:48;;;;;;;10.23;7.30;;;-1.10;99.90;;;;;;5066581;28;20294;-81
2023/12/18 08:25:16;;;;;;;8.10;7.30;;;-0.90;99.90;;;;;;5072766;28;20455;-81
2023/12/18 08:27:43;;;;;;;10.20;7.20;;;-1.00;99.90;;;;;;5065261;28;20447;-81
2023/12/18 08:30:12;;;;;;;11.55;10.07;;;-1.00;99.90;;;;;;5070847;28;20474;-81
2023/12/18 08:32:39;;;;;;;11.67;10.47;;;-0.90;99.90;;;;;;5069647;28;20274;-81
2023/12/18 08:35:07;;;;;;;10.47;9.47;;;-0.90;99.90;;;;;;5068211;28;20518;-80
2023/12/18 08:37:34;;;;;;;9.17;8.27;;;-0.80;99.90;;;;;;5066613;28;20522;-80
2023/12/18 08:40:01;;;;;;;11.07;8.07;;;-0.70;99.90;;;;;;5063437;28;20439;-79
2023/12/18 08:42:30;;;;;;;11.10;8.53;;;-0.90;99.90;;;;;;5069817;28;20515;-79
2023/12/18 08:44:57;;;;;;;8.20;7.40;;;-0.90;99.90;;;;;;5061771;28;20665;-80
2023/12/18 08:47:24;;;;;;;9.53;8.63;;;-0.80;99.90;;;;;;5079616;28;20451;-80
2023/12/18 08:49:51;;;;;;;7.73;6.93;;;-0.80;99.90;;;;;;5069899;28;20524;-80
2023/12/18 08:52:17;;;;;;;10.90;8.30;;;-0.70;99.90;;;;;;5067914;28;20447;-79
2023/12/18 08:54:44;;;;;;;10.63;9.50;;;-0.70;99.90;;;;;;5070485;28;20847;-79
2023/12/18 08:57:11;;;;;;;16.57;12.40;;;-0.60;99.90;;;;;;5080159;28;20996;-79
2023/12/18 08:59:40;;;;;;;15.57;9.90;;;-0.30;99.90;;;;;;5075152;28;20444;-80
2023/12/18 09:02:07;;;;;;;25.43;18.37;;;-0.10;99.90;;;;;;5075210;28;20479;-81
2023/12/18 09:04:34;;;;;;;15.97;13.10;;;0.10;99.90;;;;;;5078481;28;20989;-82
2023/12/18 09:07:01;;;;;;;17.67;15.93;;;0.40;99.90;;;;;;5079952;28;20509;-82
2023/12/18 09:09:27;;;;;;;16.67;12.60;;;1.10;99.90;;;;;;5065645;28;20528;-82
2023/12/18 09:11:54;;;;;;;16.13;12.60;;;0.50;99.90;;;;;;5065549;28;20509;-80
2023/12/18 09:14:21;;;;;;;21.63;19.03;;;0.40;99.90;;;;;;5065181;28;20501;-80
2023/12/18 09:16:50;;;;;;;14.43;10.63;;;0.50;99.90;;;;;;5076881;28;21008;-80
2023/12/18 09:19:17;;;;;;;12.10;9.37;;;0.40;99.90;;;;;;5073351;28;20513;-80
2023/12/18 09:21:44;;;;;;;11.73;10.27;;;0.30;99.90;;;;;;5065648;28;20930;-80
2023/12/18 09:24:11;;;;;;;15.67;13.70;;;0.30;99.90;;;;;;5070834;28;20541;-80
2023/12/18 09:26:38;;;;;;;10.60;9.30;;;0.50;99.90;;;;;;5073947;28;20546;-80
2023/12/18 09:29:05;;;;;;;11.57;10.37;;;0.60;99.90;;;;;;5071830;28;20447;-80
2023/12/18 09:31:32;;;;;;;15.40;11.47;;;0.60;99.90;;;;;;5069597;28;20451;-80
2023/12/18 09:34:00;;;;;;;11.63;9.37;;;0.70;99.90;;;;;;5069942;28;20488;-81
2023/12/18 09:36:27;;;;;;;10.50;8.63;;;0.90;99.90;;;;;;5083757;28;20544;-81
2023/12/18 09:38:54;;;;;;;5.97;5.43;;;0.90;99.90;;;;;;5075170;28;20948;-80
2023/12/18 09:41:22;;;;;;;13.43;10.23;;;1.00;99.90;;;;;;5072807;28;20895;-81
2023/12/18 09:43:51;;;;;;;12.77;11.47;;;1.10;99.90;;;;;;5070222;28;20966;-80
2023/12/18 09:46:21;;;;;;;28.40;25.13;;;1.30;99.90;;;;;;5078134;28;20447;-81
2023/12/18 09:48:48;;;;;;;24.00;21.57;;;1.40;99.90;;;;;;5083043;28;20485;-80
2023/12/18 09:51:18;;;;;;;23.50;19.47;;;1.50;99.90;;;;;;5086241;28;20469;-81
2023/12/18 09:53:46;;;;;;;13.73;12.40;;;1.50;99.90;;;;;;5075490;28;20544;-81
2023/12/18 09:56:13;;;;;;;10.83;9.30;;;1.40;99.90;;;;;;5086354;28;20934;-80
2023/12/18 09:58:42;;;;;;;10.27;9.27;;;1.20;99.90;;;;;;5071975;28;20528;-80
2023/12/18 10:01:12;;;;;;;7.93;7.33;;;1.30;99.90;;;;;;5086083;28;20504;-81
2023/12/18 10:03:39;;;;;;;6.90;6.30;;;1.10;99.90;;;;;;5079846;28;20526;-81
2023/12/18 10:06:06;;;;;;;7.50;6.87;;;1.20;99.90;;;;;;5086393;28;20443;-81
2023/12/18 10:08:34;;;;;;;9.37;7.63;;;1.30;99.90;;;;;;5083361;28;20458;-81
2023/12/18 10:11:01;;;;;;;7.07;6.47;;;1.40;99.90;;;;;;5084983;28;20899;-81
2023/12/18 10:13:28;;;;;;;11.97;10.27;;;1.40;99.90;;;;;;5082102;28;20463;-81
2023/12/18 10:15:56;;;;;;;10.67;9.67;;;1.50;99.90;;;;;;5082237;28;20958;-81
2023/12/18 10:18:24;;;;;;;15.70;8.43;;;1.70;99.90;;;;;;5068142;28;20464;-81
2023/12/18 10:20:52;;;;;;;9.07;8.23;;;2.00;99.90;;;;;;5068828;28;20470;-80
2023/12/18 10:23:19;;;;;;;11.83;10.67;;;2.20;99.90;;;;;;5067345;28;20967;-82
2023/12/18 10:25:48;;;;;;;9.97;9.00;;;2.40;99.90;;;;;;5084583;28;20902;-81
2023/12/18 10:28:16;;;;;;;12.60;9.80;;;2.30;99.90;;;;;;5080650;28;20480;-81
2023/12/18 10:30:43;;;;;;;9.83;8.83;;;2.40;99.90;;;;;;5073697;28;20534;-81
2023/12/18 10:33:12;;;;;;;8.97;8.07;;;2.50;99.90;;;;;;5067689;28;20448;-81
2023/12/18 10:35:40;;;;;;;10.17;9.10;;;2.30;99.90;;;;;;5068567;28;20524;-81
2023/12/18 10:38:09;;;;;;;8.77;7.83;;;2.30;99.90;;;;;;5070222;28;21712;-82
2023/12/18 10:40:36;;;;;;;6.37;5.77;;;2.20;99.90;;;;;;5071133;28;20901;-81
2023/12/18 10:43:12;;;;;;;8.10;6.70;;;2.10;99.90;;;;;;5083825;28;20487;-82
2023/12/18 10:45:40;;;;;;;8.50;6.93;;;1.90;99.90;;;;;;5076818;28;20454;-82
2023/12/18 10:48:08;;;;;;;6.20;5.63;;;1.50;99.90;;;;;;5083912;28;20442;-82
2023/12/18 10:50:37;;;;;;;7.30;6.60;;;1.40;99.90;;;;;;5080675;28;20515;-82
2023/12/18 10:53:06;;;;;;;6.03;5.53;;;1.50;99.90;;;;;;5079152;28;20467;-83
2023/12/18 10:55:37;;;;;;;8.23;7.37;;;1.70;99.90;;;;;;5086100;28;20474;-83
2023/12/18 10:58:06;;;;;;;8.80;7.90;;;1.80;99.90;;;;;;5073304;28;20468;-82
2023/12/18 11:00:34;;;;;;;6.93;6.23;;;1.80;99.90;;;;;;5070861;28;20927;-82
2023/12/18 11:03:02;;;;;;;6.73;6.17;;;1.70;99.90;;;;;;5065760;28;20505;-83
2023/12/18 11:05:30;;;;;;;8.97;8.10;;;1.70;99.90;;;;;;5079109;28;20495;-83
2023/12/18 11:07:56;;;;;;;6.30;5.70;;;1.90;99.90;;;;;;5070016;28;20448;-83
2023/12/18 11:10:23;;;;;;;7.30;6.60;;;2.10;99.90;;;;;;5079493;28;20451;-83
2023/12/18 11:12:56;;;;;;;6.63;6.13;;;2.20;99.90;;;;;;5067370;28;20950;-80
2023/12/18 11:15:34;;;;;;;6.20;5.60;;;2.30;99.90;;;;;;5076416;28;20456;-83
2023/12/18 11:18:11;;;;;;;8.50;7.27;;;2.50;99.90;;;;;;5066222;28;20943;-83
2023/12/18 11:20:41;;;;;;;6.60;5.17;;;2.60;99.90;;;;;;5078298;28;20825;-84
2023/12/18 11:23:10;;;;;;;7.33;6.60;;;2.50;99.90;;;;;;5079505;28;20537;-84
2023/12/18 11:25:39;;;;;;;6.07;5.33;;;2.50;99.90;;;;;;5084831;28;21146;-84
2023/12/18 11:28:07;;;;;;;7.83;6.27;;;2.60;99.90;;;;;;5076600;28;20467;-84
2023/12/18 11:30:37;;;;;;;8.20;7.40;;;2.40;99.90;;;;;;5065302;28;20784;-83
2023/12/18 11:33:06;;;;;;;6.97;6.37;;;2.40;99.90;;;;;;5075362;28;20899;-84
2023/12/18 11:35:35;;;;;;;7.17;6.00;;;2.30;99.90;;;;;;5072609;28;20447;-84
2023/12/18 11:38:06;;;;;;;7.40;6.20;;;2.40;99.90;;;;;;5073100;28;20458;-84
2023/12/18 11:40:38;;;;;;;7.50;6.80;;;2.50;99.90;;;;;;5066058;28;20841;-84
2023/12/18 11:43:06;;;;;;;9.00;8.10;;;2.60;99.90;;;;;;5070621;28;20448;-84
2023/12/18 11:45:35;;;;;;;8.80;6.57;;;2.60;99.90;;;;;;5083069;28;21229;-84
2023/12/18 11:48:04;;;;;;;8.23;7.20;;;2.60;99.90;;;;;;5077450;28;20517;-84
2023/12/18 11:50:34;;;;;;;5.93;5.33;;;2.80;99.90;;;;;;5082166;28;20504;-84
2023/12/18 11:53:02;;;;;;;8.63;6.87;;;2.70;99.90;;;;;;5079755;28;20859;-84
2023/12/18 11:55:48;;;;;;;8.60;6.60;;;2.60;99.90;;;;;;5084290;28;20482;-83
2023/12/18 11:58:16;;;;;;;5.73;5.23;;;2.10;99.90;;;;;;5079899;28;20444;-84
2023/12/18 12:00:46;;;;;;;6.80;6.20;;;2.10;99.90;;;;;;5084107;28;20474;-83
2023/12/18 12:03:14;;;;;;;6.93;5.97;;;2.10;99.90;;;;;;5083432;28;20443;-83
2023/12/18 12:05:42;;;;;;;6.37;5.77;;;2.10;99.90;;;;;;5077236;28;20547;-83
2023/12/18 12:08:09;;;;;;;6.77;6.07;;;2.50;99.90;;;;;;5076291;28;20547;-84
2023/12/18 12:10:43;;;;;;;7.57;6.80;;;2.90;99.90;;;;;;5083382;28;20513;-83
2023/12/18 12:13:18;;;;;;;6.90;6.17;;;3.20;99.90;;;;;;5073111;28;20435;-84
2023/12/18 12:15:53;;;;;;;7.53;6.73;;;3.30;99.90;;;;;;5079772;28;20547;-84
2023/12/18 12:18:20;;;;;;;7.90;7.10;;;3.10;99.90;;;;;;5083490;28;20472;-84
2023/12/18 12:20:47;;;;;;;7.47;6.77;;;3.20;99.90;;;;;;5076242;28;20470;-84
2023/12/18 12:23:14;;;;;;;6.70;6.00;;;3.30;99.90;;;;;;5071607;28;20463;-84
2023/12/18 12:25:41;;;;;;;6.20;5.60;;;3.10;99.90;;;;;;5075678;28;20870;-84
2023/12/18 12:28:09;;;;;;;6.27;5.60;;;3.10;99.90;;;;;;5074847;28;20439;-84
2023/12/18 12:30:36;;;;;;;10.77;6.83;;;2.80;99.90;;;;;;5065874;28;21899;-84
2023/12/18 12:33:05;;;;;;;6.70;5.97;;;2.40;99.90;;;;;;5071667;28;20447;-84
2023/12/18 12:35:33;;;;;;;5.40;4.90;;;2.40;99.90;;;;;;5070258;28;20443;-83
2023/12/18 12:38:02;;;;;;;7.20;6.17;;;2.50;99.90;;;;;;5061806;28;20485;-83
2023/12/18 12:40:40;;;;;;;5.40;4.97;;;2.60;99.90;;;;;;5064243;28;20540;-81
2023/12/18 12:43:08;;;;;;;7.40;6.70;;;2.80;99.90;;;;;;5073859;28;20551;-82
2023/12/18 12:45:36;;;;;;;6.27;5.67;;;2.80;99.90;;;;;;5082269;28;20497;-81
2023/12/18 12:48:06;;;;;;;6.70;6.00;;;2.80;99.90;;;;;;5078335;28;20888;-82
2023/12/18 12:50:37;;;;;;;8.20;6.70;;;2.40;99.90;;;;;;5062636;28;20491;-82